createdAt,value
2019-01-14T00:00:59.854Z,62.33
2019-01-14T00:03:27.431Z,42.03
2019-01-14T00:05:55.019Z,50.13
2019-01-14T00:08:22.615Z,51.27
2019-01-14T00:10:50.056Z,50.97
2019-01-14T00:13:17.476Z,48.63
2019-01-14T00:15:45.024Z,70.97
2019-01-14T00:18:12.791Z,58.77
2019-01-14T00:20:40.406Z,92.70
2019-01-14T00:23:07.887Z,93.87
2019-01-14T00:25:35.473Z,103.90
2019-01-14T00:28:02.943Z,96.57
2019-01-14T00:30:30.521Z,103.50
2019-01-14T00:32:57.960Z,103.17
2019-01-14T00:35:25.418Z,106.40
2019-01-14T00:37:52.997Z,102.80
2019-01-14T00:40:20.418Z,98.70
2019-01-14T00:42:47.972Z,97.37
2019-01-14T00:45:15.554Z,103.37
2019-01-14T00:47:43.090Z,102.17
2019-01-14T00:50:12.485Z,114.17
2019-01-14T00:52:40.257Z,117.50
2019-01-14T00:55:08.374Z,103.27
2019-01-14T00:57:35.856Z,90.43
2019-01-14T01:00:07.805Z,103.90
2019-01-14T01:02:35.368Z,98.30
2019-01-14T01:05:03.470Z,95.63
2019-01-14T01:07:31.002Z,77.60
2019-01-14T01:09:58.520Z,72.37
2019-01-14T01:12:26.204Z,78.13
2019-01-14T01:14:53.666Z,87.50
2019-01-14T01:17:21.136Z,88.30
2019-01-14T01:19:48.759Z,120.10
2019-01-14T01:22:16.310Z,114.73
2019-01-14T01:24:43.840Z,92.83
2019-01-14T01:27:11.330Z,90.50
2019-01-14T01:29:38.845Z,113.60
2019-01-14T01:32:06.363Z,84.37
2019-01-14T01:34:33.862Z,56.80
2019-01-14T01:37:01.412Z,86.30
2019-01-14T01:39:28.983Z,73.90
2019-01-14T01:41:56.407Z,60.23
2019-01-14T01:44:24.010Z,64.40
2019-01-14T01:46:51.689Z,49.20
2019-01-14T01:49:19.180Z,38.73
2019-01-14T01:51:46.638Z,33.37
2019-01-14T01:54:14.231Z,43.90
2019-01-14T01:56:41.746Z,40.50
2019-01-14T01:59:09.270Z,48.03
2019-01-14T02:01:36.735Z,35.23
2019-01-14T02:04:04.495Z,41.97
2019-01-14T02:06:39.000Z,38.23
2019-01-14T02:09:01.587Z,39.80
2019-01-14T02:11:29.090Z,36.77
2019-01-14T02:13:56.981Z,35.30
2019-01-14T02:16:24.599Z,32.40
2019-01-14T02:18:52.146Z,38.33
2019-01-14T02:21:19.799Z,33.37
2019-01-14T02:23:47.390Z,36.73
2019-01-14T02:26:14.983Z,33.00
2019-01-14T02:28:42.467Z,31.40
2019-01-14T02:31:10.360Z,35.80
2019-01-14T02:33:37.830Z,28.70
2019-01-14T02:36:05.518Z,32.20
2019-01-14T02:38:33.116Z,33.40
2019-01-14T02:41:00.530Z,38.57
2019-01-14T02:43:28.077Z,39.10
2019-01-14T02:45:55.492Z,40.70
2019-01-14T02:48:23.019Z,45.03
2019-01-14T02:50:50.615Z,39.33
2019-01-14T02:53:18.099Z,43.30
2019-01-14T02:55:45.760Z,42.03
2019-01-14T02:58:13.318Z,44.87
2019-01-14T03:00:40.905Z,36.73
2019-01-14T03:03:08.491Z,35.40
2019-01-14T03:05:36.090Z,47.13
2019-01-14T03:08:03.776Z,43.53
2019-01-14T03:10:31.210Z,53.63
2019-01-14T03:12:58.626Z,41.27
2019-01-14T03:15:26.152Z,44.67
2019-01-14T03:17:53.804Z,40.93
2019-01-14T03:20:21.475Z,43.77
2019-01-14T03:22:49.088Z,49.77
2019-01-14T03:25:16.746Z,51.93
2019-01-14T03:27:44.443Z,54.17
2019-01-14T03:30:14.924Z,50.03
2019-01-14T03:32:42.406Z,46.57
2019-01-14T03:35:10.640Z,40.47
2019-01-14T03:37:38.200Z,43.87
2019-01-14T03:40:08.678Z,47.87
2019-01-14T03:42:36.173Z,45.07
2019-01-14T03:45:04.344Z,45.47
2019-01-14T03:47:31.817Z,41.53
2019-01-14T03:49:59.430Z,37.63
2019-01-14T03:52:27.002Z,38.13
2019-01-14T03:54:54.491Z,41.27
2019-01-14T03:57:22.211Z,40.23
2019-01-14T03:59:49.667Z,39.93
2019-01-14T04:02:17.175Z,40.97
2019-01-14T04:04:44.759Z,38.80
2019-01-14T04:07:13.789Z,50.10
2019-01-14T04:09:41.694Z,46.87
2019-01-14T04:12:09.200Z,39.43
2019-01-14T04:14:36.817Z,52.30
2019-01-14T04:17:04.253Z,46.37
2019-01-14T04:19:31.868Z,42.33
2019-01-14T04:21:59.477Z,46.83
2019-01-14T04:24:26.970Z,47.00
2019-01-14T04:26:54.458Z,38.27
2019-01-14T04:29:22.047Z,32.70
2019-01-14T04:31:49.555Z,42.33
2019-01-14T04:34:17.012Z,36.00
2019-01-14T04:36:44.569Z,43.17
2019-01-14T04:39:12.422Z,37.53
2019-01-14T04:41:39.878Z,43.43
2019-01-14T04:44:07.459Z,35.23
2019-01-14T04:46:34.958Z,33.47
2019-01-14T04:49:02.467Z,38.47
2019-01-14T04:51:29.962Z,28.90
2019-01-14T04:53:57.473Z,27.50
2019-01-14T04:56:25.037Z,38.80
2019-01-14T04:58:52.555Z,33.30
2019-01-14T05:01:20.038Z,28.27
2019-01-14T05:03:47.551Z,30.60
2019-01-14T05:06:15.524Z,28.50
2019-01-14T05:08:43.304Z,30.00
2019-01-14T05:11:10.881Z,35.10
2019-01-14T05:13:38.467Z,26.43
2019-01-14T05:16:05.868Z,28.63
2019-01-14T05:18:33.362Z,32.97
2019-01-14T05:21:00.899Z,26.57
2019-01-14T05:23:28.571Z,28.77
2019-01-14T05:25:56.176Z,29.23
2019-01-14T05:28:23.770Z,23.60
2019-01-14T05:30:51.355Z,31.20
2019-01-14T05:33:19.050Z,26.90
2019-01-14T05:35:46.573Z,39.63
2019-01-14T05:38:14.154Z,29.40
2019-01-14T05:40:41.549Z,31.87
2019-01-14T05:43:09.059Z,36.93
2019-01-14T05:45:36.720Z,28.83
2019-01-14T05:48:04.461Z,26.80
2019-01-14T05:50:32.638Z,33.13
2019-01-14T05:53:00.169Z,24.83
2019-01-14T05:55:27.571Z,27.20
2019-01-14T05:57:55.058Z,32.60
2019-01-14T06:00:26.379Z,25.47
2019-01-14T06:02:54.743Z,26.70
2019-01-14T06:05:22.788Z,26.80
2019-01-14T06:07:50.819Z,26.27
2019-01-14T06:10:18.522Z,28.83
2019-01-14T06:12:46.034Z,36.67
2019-01-14T06:15:14.870Z,41.17
2019-01-14T06:17:42.446Z,59.53
2019-01-14T06:20:11.848Z,59.33
2019-01-14T06:22:39.357Z,61.73
2019-01-14T06:25:08.548Z,80.40
2019-01-14T06:27:36.196Z,61.90
2019-01-14T06:30:07.133Z,76.93
2019-01-14T06:32:34.686Z,80.50
2019-01-14T06:35:02.174Z,84.07
2019-01-14T06:37:29.656Z,80.60
2019-01-14T06:39:57.287Z,75.80
2019-01-14T06:42:24.910Z,66.23
2019-01-14T06:44:52.793Z,60.77
2019-01-14T06:47:21.357Z,59.30
2019-01-14T06:49:48.970Z,72.60
2019-01-14T06:52:16.476Z,66.77
2019-01-14T06:54:43.964Z,44.13
2019-01-14T06:57:11.606Z,62.77
2019-01-14T06:59:39.314Z,67.00
2019-01-14T07:02:06.957Z,65.87
2019-01-14T07:04:34.529Z,60.20
2019-01-14T07:07:02.235Z,85.83
2019-01-14T07:09:30.130Z,84.67
2019-01-14T07:11:58.016Z,85.00
2019-01-14T07:14:25.684Z,77.93
2019-01-14T07:16:53.320Z,77.10
2019-01-14T07:19:20.815Z,76.00
2019-01-14T07:21:48.944Z,81.10
2019-01-14T07:24:16.691Z,77.37
2019-01-14T07:26:44.481Z,72.80
2019-01-14T07:29:11.911Z,65.70
2019-01-14T07:31:39.586Z,43.10
2019-01-14T07:34:07.306Z,45.13
2019-01-14T07:36:34.896Z,44.67
2019-01-14T07:39:04.479Z,47.23
2019-01-14T07:41:31.946Z,44.47
2019-01-14T07:43:59.539Z,61.03
2019-01-14T07:46:27.030Z,88.73
2019-01-14T07:48:54.626Z,72.27
2019-01-14T07:51:22.256Z,74.13
2019-01-14T07:53:49.978Z,49.73
2019-01-14T07:56:17.872Z,74.03
2019-01-14T07:58:45.948Z,39.93
2019-01-14T08:01:13.805Z,39.70
2019-01-14T08:03:41.239Z,34.63
2019-01-14T08:06:08.762Z,30.67
2019-01-14T08:08:36.311Z,38.83
2019-01-14T08:11:03.851Z,39.00
2019-01-14T08:13:31.463Z,47.47
2019-01-14T08:15:59.017Z,41.90
2019-01-14T08:18:26.423Z,44.47
2019-01-14T08:20:54.173Z,39.63
2019-01-14T08:23:21.699Z,41.43
2019-01-14T08:25:49.388Z,40.53
2019-01-14T08:28:16.926Z,33.13
2019-01-14T08:30:44.447Z,37.77
2019-01-14T08:33:11.981Z,42.17
2019-01-14T08:35:39.702Z,45.97
2019-01-14T08:38:07.452Z,45.83
2019-01-14T08:40:35.226Z,41.23
2019-01-14T08:43:02.795Z,38.03
2019-01-14T08:45:30.261Z,36.63
2019-01-14T08:47:57.853Z,37.10
2019-01-14T08:50:25.670Z,37.57
2019-01-14T08:52:53.452Z,37.93
2019-01-14T08:55:21.226Z,49.30
2019-01-14T08:57:54.457Z,45.73
2019-01-14T09:00:20.596Z,46.63
2019-01-14T09:02:48.158Z,46.60
2019-01-14T09:05:16.087Z,47.70
2019-01-14T09:07:43.873Z,52.47
2019-01-14T09:10:14.647Z,38.30
2019-01-14T09:12:42.173Z,41.93
2019-01-14T09:15:11.251Z,46.90
2019-01-14T09:17:38.964Z,48.30
2019-01-14T09:20:10.764Z,51.13
2019-01-14T09:22:38.720Z,45.97
2019-01-14T09:25:06.653Z,50.20
2019-01-14T09:27:34.240Z,50.57
2019-01-14T09:30:01.792Z,43.63
2019-01-14T09:32:29.272Z,50.20
2019-01-14T09:34:56.696Z,56.73
2019-01-14T09:37:24.364Z,55.77
2019-01-14T09:39:52.042Z,48.27
2019-01-14T09:42:19.733Z,48.17
2019-01-14T09:44:47.343Z,47.30
2019-01-14T09:47:15.190Z,47.10
2019-01-14T09:49:45.590Z,51.37
2019-01-14T09:52:12.417Z,61.60
2019-01-14T09:54:39.905Z,53.57
2019-01-14T09:57:07.522Z,65.27
2019-01-14T09:59:35.178Z,65.67
2019-01-14T10:02:02.797Z,66.50
2019-01-14T10:04:30.358Z,62.03
2019-01-14T10:06:57.927Z,68.00
2019-01-14T10:09:25.415Z,71.47
2019-01-14T10:11:52.934Z,59.57
2019-01-14T10:14:20.756Z,59.83
2019-01-14T10:16:48.615Z,62.13
2019-01-14T10:19:16.384Z,61.87
2019-01-14T10:21:43.915Z,63.97
2019-01-14T10:24:11.622Z,61.03
2019-01-14T10:26:39.230Z,63.63
2019-01-14T10:29:06.907Z,53.50
2019-01-14T10:31:34.524Z,53.47
2019-01-14T10:34:02.000Z,57.17
2019-01-14T10:36:29.667Z,59.10
2019-01-14T10:38:57.081Z,54.70
2019-01-14T10:41:24.648Z,54.27
2019-01-14T10:43:52.175Z,55.60
2019-01-14T10:46:19.816Z,51.57
2019-01-14T10:48:47.408Z,43.03
2019-01-14T10:51:15.155Z,45.07
2019-01-14T10:53:42.749Z,44.40
2019-01-14T10:56:10.608Z,52.00
2019-01-14T10:58:38.097Z,44.10
2019-01-14T11:01:05.785Z,45.43
2019-01-14T11:03:33.427Z,46.57
2019-01-14T11:06:01.283Z,41.67
2019-01-14T11:08:29.537Z,40.53
2019-01-14T11:10:57.015Z,35.67
2019-01-14T11:13:24.635Z,45.93
2019-01-14T11:15:52.070Z,40.87
2019-01-14T11:18:19.599Z,40.80
2019-01-14T11:20:47.392Z,40.80
2019-01-14T11:23:14.951Z,42.13
2019-01-14T11:25:42.618Z,39.27
2019-01-14T11:28:10.216Z,45.33
2019-01-14T11:30:37.846Z,45.83
2019-01-14T11:33:05.575Z,39.17
2019-01-14T11:35:35.136Z,35.97
2019-01-14T11:38:02.962Z,48.97
2019-01-14T11:40:38.921Z,43.80
2019-01-14T11:43:06.907Z,44.53
2019-01-14T11:45:34.514Z,35.00
2019-01-14T11:48:02.496Z,34.17
2019-01-14T11:50:30.077Z,37.77
2019-01-14T11:52:57.534Z,27.93
2019-01-14T11:55:25.194Z,33.93
2019-01-14T11:57:52.645Z,34.57
2019-01-14T12:00:22.523Z,32.67
2019-01-14T12:02:50.062Z,30.27
2019-01-14T12:05:17.716Z,27.83
2019-01-14T12:07:45.410Z,26.23
2019-01-14T12:10:13.193Z,24.33
2019-01-14T12:12:40.726Z,24.40
2019-01-14T12:15:15.297Z,32.87
2019-01-14T12:17:42.906Z,35.83
2019-01-14T12:20:12.320Z,36.43
2019-01-14T12:22:40.080Z,33.33
2019-01-14T12:25:08.564Z,29.50
2019-01-14T12:27:36.487Z,32.87
2019-01-14T12:30:09.307Z,33.53
2019-01-14T12:32:36.829Z,34.57
2019-01-14T12:35:04.937Z,34.33
2019-01-14T12:37:32.675Z,38.73
2019-01-14T12:40:00.233Z,32.73
2019-01-14T12:42:27.738Z,31.50
2019-01-14T12:44:55.354Z,31.27
2019-01-14T12:47:22.959Z,38.47
2019-01-14T12:49:50.482Z,30.57
2019-01-14T12:52:17.930Z,33.07
2019-01-14T12:54:45.512Z,31.73
2019-01-14T12:57:13.028Z,33.03
2019-01-14T12:59:40.412Z,37.07
2019-01-14T13:02:08.041Z,36.13
2019-01-14T13:04:35.711Z,29.97
2019-01-14T13:07:03.283Z,36.50
2019-01-14T13:09:30.954Z,35.97
2019-01-14T13:11:58.689Z,35.17
2019-01-14T13:14:26.243Z,35.70
2019-01-14T13:16:54.136Z,38.43
2019-01-14T13:19:21.840Z,41.40
2019-01-14T13:21:49.383Z,40.77
2019-01-14T13:24:16.967Z,36.60
2019-01-14T13:26:44.615Z,39.40
2019-01-14T13:29:15.267Z,37.60
2019-01-14T13:31:41.922Z,37.20
2019-01-14T13:34:09.814Z,36.93
2019-01-14T13:36:37.882Z,39.63
2019-01-14T13:39:08.540Z,40.37
2019-01-14T13:41:36.056Z,39.87
2019-01-14T13:44:03.918Z,42.70
2019-01-14T13:46:31.546Z,40.10
2019-01-14T13:48:59.054Z,51.37
2019-01-14T13:51:26.711Z,35.57
2019-01-14T13:53:54.287Z,26.70
2019-01-14T13:56:22.121Z,35.27
2019-01-14T13:58:49.651Z,28.47
2019-01-14T14:01:17.285Z,30.23
2019-01-14T14:03:44.883Z,23.83
2019-01-14T14:06:12.554Z,25.10
2019-01-14T14:08:40.661Z,21.53
2019-01-14T14:11:08.545Z,22.33
2019-01-14T14:13:35.970Z,24.33
2019-01-14T14:16:03.657Z,23.83
2019-01-14T14:18:31.146Z,29.20
2019-01-14T14:20:58.745Z,26.77
2019-01-14T14:23:26.184Z,32.03
2019-01-14T14:25:54.065Z,25.37
2019-01-14T14:28:21.639Z,34.00
2019-01-14T14:30:49.335Z,31.23
2019-01-14T14:33:16.887Z,22.03
2019-01-14T14:35:44.310Z,25.03
2019-01-14T14:38:12.486Z,33.70
2019-01-14T14:40:39.973Z,25.20
2019-01-14T14:43:07.395Z,27.37
2019-01-14T14:45:35.050Z,30.20
2019-01-14T14:48:02.795Z,35.30
2019-01-14T14:50:30.494Z,32.47
2019-01-14T14:52:58.107Z,30.87
2019-01-14T14:55:26.663Z,31.10
2019-01-14T14:57:54.399Z,39.03
2019-01-14T15:00:22.686Z,49.47
2019-01-14T15:02:50.506Z,46.67
2019-01-14T15:05:18.380Z,41.33
2019-01-14T15:07:46.197Z,45.40
2019-01-14T15:10:15.549Z,42.87
2019-01-14T15:12:43.226Z,35.97
2019-01-14T15:15:12.500Z,33.67
2019-01-14T15:17:40.163Z,30.97
2019-01-14T15:20:10.756Z,29.87
2019-01-14T15:22:38.302Z,26.93
2019-01-14T15:25:05.902Z,29.97
2019-01-14T15:27:33.456Z,30.87
2019-01-14T15:30:00.985Z,30.77
2019-01-14T15:32:28.584Z,31.03
2019-01-14T15:34:56.037Z,35.87
2019-01-14T15:37:24.025Z,26.80
2019-01-14T15:39:51.606Z,24.87
2019-01-14T15:42:20.177Z,28.30
2019-01-14T15:44:47.667Z,27.33
2019-01-14T15:47:15.207Z,23.13
2019-01-14T15:49:42.960Z,30.37
2019-01-14T15:52:10.587Z,24.60
2019-01-14T15:54:38.134Z,23.00
2019-01-14T15:57:06.000Z,24.60
2019-01-14T15:59:33.594Z,24.23
2019-01-14T16:02:01.714Z,26.40
2019-01-14T16:04:29.333Z,19.57
2019-01-14T16:06:56.954Z,26.27
2019-01-14T16:09:24.550Z,17.90
2019-01-14T16:11:52.173Z,21.73
2019-01-14T16:14:19.754Z,21.67
2019-01-14T16:16:47.374Z,26.47
2019-01-14T16:19:14.938Z,32.67
2019-01-14T16:21:42.524Z,49.93
2019-01-14T16:24:10.255Z,53.97
2019-01-14T16:26:37.864Z,45.60
2019-01-14T16:29:05.907Z,60.53
2019-01-14T16:31:33.428Z,87.97
2019-01-14T16:34:01.100Z,70.13
2019-01-14T16:36:28.639Z,71.73
2019-01-14T16:38:56.254Z,66.10
2019-01-14T16:41:23.708Z,69.03
2019-01-14T16:43:51.323Z,62.53
2019-01-14T16:46:18.819Z,67.47
2019-01-14T16:48:46.335Z,38.20
2019-01-14T16:51:14.009Z,53.13
2019-01-14T16:53:41.645Z,50.20
2019-01-14T16:56:09.154Z,55.03
2019-01-14T16:58:36.741Z,57.50
2019-01-14T17:01:04.363Z,53.93
2019-01-14T17:03:31.779Z,47.13
2019-01-14T17:05:59.415Z,36.10
2019-01-14T17:08:26.948Z,39.23
2019-01-14T17:10:54.657Z,47.73
2019-01-14T17:13:22.190Z,46.83
2019-01-14T17:15:49.753Z,38.80
2019-01-14T17:18:17.331Z,47.27
2019-01-14T17:20:44.817Z,47.80
2019-01-14T17:23:12.240Z,43.90
2019-01-14T17:25:39.753Z,50.77
2019-01-14T17:28:07.393Z,50.70
2019-01-14T17:30:34.957Z,41.70
2019-01-14T17:33:02.700Z,48.00
2019-01-14T17:35:30.249Z,46.47
2019-01-14T17:37:57.909Z,54.03
2019-01-14T17:40:32.305Z,56.80
2019-01-14T17:42:56.334Z,33.53
2019-01-14T17:45:23.940Z,43.90
2019-01-14T17:47:52.765Z,48.70
2019-01-14T17:50:20.382Z,43.80
2019-01-14T17:52:47.896Z,40.07
2019-01-14T17:55:15.572Z,45.70
2019-01-14T17:57:42.954Z,35.87
2019-01-14T18:00:16.292Z,36.40
2019-01-14T18:02:43.896Z,42.73
2019-01-14T18:05:11.929Z,37.70
2019-01-14T18:07:46.962Z,46.77
2019-01-14T18:10:15.667Z,46.30
2019-01-14T18:12:43.452Z,49.80
2019-01-14T18:15:11.177Z,54.90
2019-01-14T18:17:38.826Z,56.37
2019-01-14T18:20:08.377Z,58.73
2019-01-14T18:22:36.056Z,52.57
2019-01-14T18:25:04.734Z,52.20
2019-01-14T18:27:32.238Z,56.50
2019-01-14T18:29:59.706Z,56.70
2019-01-14T18:32:27.176Z,56.00
2019-01-14T18:34:55.039Z,64.90
2019-01-14T18:37:22.974Z,64.67
2019-01-14T18:39:50.876Z,53.90
2019-01-14T18:42:18.511Z,72.43
2019-01-14T18:44:47.228Z,65.37
2019-01-14T18:47:14.979Z,62.13
2019-01-14T18:49:42.490Z,64.33
2019-01-14T18:52:09.975Z,57.53
2019-01-14T18:54:37.528Z,63.53
2019-01-14T18:57:05.100Z,55.80
2019-01-14T18:59:32.667Z,60.80
2019-01-14T19:02:00.328Z,54.40
2019-01-14T19:04:27.940Z,46.90
2019-01-14T19:06:55.735Z,54.70
2019-01-14T19:09:23.604Z,51.57
2019-01-14T19:11:51.501Z,64.83
2019-01-14T19:14:19.408Z,53.60
2019-01-14T19:16:47.246Z,49.03
2019-01-14T19:19:15.049Z,50.97
2019-01-14T19:21:43.030Z,46.43
2019-01-14T19:24:10.753Z,52.47
2019-01-14T19:26:38.330Z,54.47
2019-01-14T19:29:06.009Z,45.23
2019-01-14T19:31:33.738Z,42.77
2019-01-14T19:34:01.233Z,39.40
2019-01-14T19:36:28.935Z,32.37
2019-01-14T19:38:56.426Z,22.07
2019-01-14T19:41:23.914Z,20.27
2019-01-14T19:43:51.431Z,20.70
2019-01-14T19:46:19.225Z,15.90
2019-01-14T19:48:46.848Z,13.50
2019-01-14T19:51:15.059Z,15.43
2019-01-14T19:53:42.927Z,14.77
2019-01-14T19:56:10.745Z,9.87
2019-01-14T19:58:38.411Z,10.87
2019-01-14T20:01:06.053Z,9.73
2019-01-14T20:03:33.656Z,9.43
2019-01-14T20:06:02.110Z,11.33
2019-01-14T20:08:29.862Z,8.60
2019-01-14T20:10:57.534Z,8.40
2019-01-14T20:13:25.119Z,14.10
2019-01-14T20:15:52.804Z,11.20
2019-01-14T20:18:20.260Z,8.73
2019-01-14T20:20:47.864Z,8.50
2019-01-14T20:23:15.384Z,6.73
2019-01-14T20:25:42.843Z,6.10
2019-01-14T20:28:10.499Z,5.43
2019-01-14T20:30:38.065Z,6.13
2019-01-14T20:33:06.344Z,8.10
2019-01-14T20:35:34.164Z,7.27
2019-01-14T20:38:01.723Z,7.83
2019-01-14T20:40:29.528Z,7.80
2019-01-14T20:42:57.625Z,8.73
2019-01-14T20:45:25.726Z,7.80
2019-01-14T20:47:53.580Z,8.53
2019-01-14T20:50:21.631Z,9.90
2019-01-14T20:52:49.611Z,9.43
2019-01-14T20:55:17.235Z,7.63
2019-01-14T20:57:45.121Z,8.10
2019-01-14T21:00:24.837Z,10.10
2019-01-14T21:02:52.880Z,12.17
2019-01-14T21:05:21.955Z,13.10
2019-01-14T21:07:49.550Z,13.30
2019-01-14T21:10:17.636Z,8.73
2019-01-14T21:12:45.142Z,7.97
2019-01-14T21:15:13.287Z,8.97
2019-01-14T21:17:40.925Z,8.67
2019-01-14T21:20:18.058Z,7.50
2019-01-14T21:22:45.680Z,8.70
2019-01-14T21:25:13.607Z,7.60
2019-01-14T21:27:41.146Z,7.20
2019-01-14T21:30:12.044Z,8.13
2019-01-14T21:32:40.829Z,10.00
2019-01-14T21:35:10.705Z,8.07
2019-01-14T21:37:38.381Z,8.67
2019-01-14T21:40:07.873Z,8.73
2019-01-14T21:42:35.373Z,9.27
2019-01-14T21:45:03.776Z,8.60
2019-01-14T21:47:32.744Z,8.13
2019-01-14T21:50:00.583Z,9.20
2019-01-14T21:52:28.154Z,7.60
2019-01-14T21:54:55.675Z,7.37
2019-01-14T21:57:23.237Z,5.13
2019-01-14T21:59:50.761Z,7.03
2019-01-14T22:02:18.403Z,7.13
2019-01-14T22:04:45.934Z,6.03
2019-01-14T22:07:13.555Z,5.57
2019-01-14T22:09:41.133Z,4.50
2019-01-14T22:12:08.775Z,7.80
2019-01-14T22:14:36.174Z,5.57
2019-01-14T22:17:03.886Z,6.57
2019-01-14T22:19:31.489Z,3.73
2019-01-14T22:21:58.902Z,6.50
2019-01-14T22:24:26.495Z,5.73
2019-01-14T22:26:55.121Z,6.03
2019-01-14T22:29:22.725Z,5.03
2019-01-14T22:31:50.198Z,7.20
2019-01-14T22:34:17.678Z,5.87
2019-01-14T22:36:45.202Z,6.70
2019-01-14T22:39:12.736Z,4.60
2019-01-14T22:41:45.669Z,6.63
2019-01-14T22:44:09.670Z,6.03
2019-01-14T22:46:37.206Z,7.63
2019-01-14T22:49:04.838Z,6.50
2019-01-14T22:51:32.315Z,5.47
2019-01-14T22:53:59.841Z,5.87
2019-01-14T22:56:27.311Z,6.37
2019-01-14T22:58:54.999Z,5.53
2019-01-14T23:01:34.740Z,4.83
2019-01-14T23:04:02.279Z,7.30
2019-01-14T23:06:29.846Z,5.43
2019-01-14T23:08:57.641Z,6.83
2019-01-14T23:11:25.229Z,5.73
2019-01-14T23:13:52.714Z,5.57
2019-01-14T23:16:20.233Z,5.87
2019-01-14T23:18:47.684Z,3.50
2019-01-14T23:21:15.274Z,4.30
2019-01-14T23:23:42.852Z,3.73
2019-01-14T23:26:10.344Z,4.47
2019-01-14T23:28:37.797Z,3.37
2019-01-14T23:31:05.339Z,5.07
2019-01-14T23:33:32.862Z,4.50
2019-01-14T23:36:00.346Z,3.73
2019-01-14T23:38:27.918Z,4.97
2019-01-14T23:40:55.431Z,5.20
2019-01-14T23:43:23.060Z,4.43
2019-01-14T23:45:50.637Z,5.17
2019-01-14T23:48:18.191Z,6.23
2019-01-14T23:50:45.668Z,5.00
2019-01-14T23:53:13.215Z,4.97
2019-01-14T23:55:40.762Z,5.00
2019-01-14T23:58:08.270Z,4.27
